»·PEaware :: N1169D CYBW-KTWF

N1169D :: CYBW-KTWF

FLIGHT INFORMATION

Flight Status: Arrived
Operator: Privately registered:
United States
More flights under this callsign
Pilot: Sean L. (31034)
Aircraft: CIRRUS SR-22
(SR22)
More flights by this aircraft type
Origin: CYBW Springbank
Canada
Destination: KTWF Joslin Fld-Magic Valley Regl
United States
More flights between these airports :: More routes between these airports
Route: UKRAL T620 MEKPI T638 SATOV/N0109F070 FCA MSO V231 LKT TWF
File this flight plan on PilotEdge
Remarks: Be gentle ... first cross border flight.
Altitude:
(Current/Filed)
12,000ft
Speed:
(Current/Filed)
175kts
Departed: 18-Jan-21 05:56 PM
Arrived: 18-Jan-21 08:42 PM
Distance/Time
Traveled:
517nm/2:46
Distance/Time
To Go:
Arrived

Flight Plot

Page will automatically refresh every two minutes.

Flight plan parsing failed; only flown route is shown


Map Options




Map Legend


Flown Route
Filed Route
Departure Airport
Arrival Airport
Navaid (VOR, NDB)
Fix

Horizontal Profiles

Position Reports

Time Latitude Longitude Heading Altitude Ground
Speed
18-Jan-21 17:54 51.138211 -114.338586 155 5045ft 173kts
18-Jan-21 17:55 51.100677 -114.359729 209 5541ft 175kts
18-Jan-21 17:56 51.048050 -114.371073 180 6207ft 176kts
18-Jan-21 17:57 50.991112 -114.370754 179 6905ft 177kts
18-Jan-21 17:58 50.936031 -114.370411 179 7649ft 176kts
18-Jan-21 17:59 50.880021 -114.370066 179 8369ft 178kts
18-Jan-21 18:00 50.824582 -114.369727 179 9044ft 180kts
18-Jan-21 18:01 50.772560 -114.369373 179 10447ft 157kts
18-Jan-21 18:02 50.724042 -114.369090 179 11739ft 161kts
18-Jan-21 18:03 50.667676 -114.368780 179 12002ft 196kts
18-Jan-21 18:04 50.604079 -114.368382 179 12000ft 202kts
18-Jan-21 18:05 50.540230 -114.367995 179 11998ft 197kts
18-Jan-21 18:06 50.480238 -114.367632 179 11998ft 186kts
18-Jan-21 18:07 50.424128 -114.367279 179 11999ft 183kts
18-Jan-21 18:08 50.367090 -114.388329 197 12000ft 193kts
18-Jan-21 18:09 50.309410 -114.417607 198 12000ft 194kts
18-Jan-21 18:10 50.253129 -114.446283 198 11999ft 186kts
18-Jan-21 18:11 50.210366 -114.467987 198 11999ft 184kts
18-Jan-21 18:12 50.156140 -114.495461 198 11999ft 183kts
18-Jan-21 18:13 50.102165 -114.522747 198 11999ft 183kts
18-Jan-21 18:14 50.046827 -114.518844 173 12000ft 183kts
18-Jan-21 18:15 49.992100 -114.508484 173 11999ft 183kts
18-Jan-21 18:16 49.937950 -114.497981 173 11999ft 183kts
18-Jan-21 18:17 49.883431 -114.487554 173 11999ft 183kts
18-Jan-21 18:18 49.830965 -114.477687 173 11999ft 183kts
18-Jan-21 18:19 49.779042 -114.467916 173 11999ft 183kts
18-Jan-21 18:20 49.726864 -114.458089 173 11999ft 183kts
18-Jan-21 18:21 49.674657 -114.448248 173 11999ft 183kts
18-Jan-21 18:22 49.622323 -114.438372 173 11999ft 183kts
18-Jan-21 18:23 49.568667 -114.428239 173 11999ft 183kts
18-Jan-21 18:24 49.514654 -114.418031 173 11999ft 183kts
18-Jan-21 18:25 49.459645 -114.407609 173 12000ft 188kts
18-Jan-21 18:26 49.403412 -114.396975 173 12000ft 189kts
18-Jan-21 18:27 49.347958 -114.386476 173 12000ft 189kts
18-Jan-21 18:28 49.298280 -114.377004 172 13039ft 148kts
18-Jan-21 18:29 49.255976 -114.368948 173 14005ft 176kts
18-Jan-21 18:30 49.202177 -114.358841 173 13999ft 195kts
18-Jan-21 18:31 49.147133 -114.348377 173 13999ft 191kts
18-Jan-21 18:32 49.092432 -114.337967 173 13999ft 191kts
18-Jan-21 18:33 49.037362 -114.327475 173 13999ft 190kts
18-Jan-21 18:34 48.982056 -114.329374 159 14004ft 190kts
18-Jan-21 18:35 48.928977 -114.308044 171 13999ft 190kts
18-Jan-21 18:36 48.874930 -114.296815 172 14000ft 192kts
18-Jan-21 18:37 48.819168 -114.286418 173 13545ft 205kts
18-Jan-21 18:38 48.762621 -114.275939 173 13541ft 193kts
18-Jan-21 18:39 48.709961 -114.266230 173 13542ft 190kts
18-Jan-21 18:40 48.657268 -114.256542 173 13542ft 190kts
18-Jan-21 18:41 48.605044 -114.246962 173 13542ft 189kts
18-Jan-21 18:42 48.546792 -114.236290 173 13543ft 193kts
18-Jan-21 18:43 48.491269 -114.226157 173 13542ft 191kts
18-Jan-21 18:44 48.437936 -114.216434 173 13542ft 191kts
18-Jan-21 18:45 48.384819 -114.206772 173 13542ft 191kts
18-Jan-21 18:46 48.332153 -114.197211 173 13542ft 191kts
18-Jan-21 18:47 48.279376 -114.187058 172 13542ft 191kts
18-Jan-21 18:48 48.226704 -114.176896 172 13542ft 191kts
18-Jan-21 18:49 48.173865 -114.166693 172 13542ft 191kts
18-Jan-21 18:50 48.120767 -114.167161 180 13542ft 191kts
18-Jan-21 18:52 48.066658 -114.165033 177 13542ft 191kts
18-Jan-21 18:53 48.011595 -114.161243 177 13542ft 191kts
18-Jan-21 18:54 47.958286 -114.157432 177 13542ft 191kts
18-Jan-21 18:55 47.904160 -114.153557 177 13542ft 191kts
18-Jan-21 18:56 47.850688 -114.149734 177 13542ft 191kts
18-Jan-21 18:57 47.797611 -114.145949 177 13542ft 191kts
18-Jan-21 18:58 47.744602 -114.142175 177 13542ft 191kts
18-Jan-21 18:59 47.691356 -114.138393 177 13542ft 191kts
18-Jan-21 19:00 47.638180 -114.134623 177 13542ft 191kts
18-Jan-21 19:01 47.585194 -114.130877 177 13542ft 191kts
18-Jan-21 19:02 47.531992 -114.127118 177 13542ft 191kts
18-Jan-21 19:03 47.478938 -114.123377 177 13542ft 191kts
18-Jan-21 19:04 47.425786 -114.119640 177 13542ft 190kts
18-Jan-21 19:05 47.372878 -114.115928 177 13542ft 190kts
18-Jan-21 19:06 47.320012 -114.112228 177 13542ft 190kts
18-Jan-21 19:07 47.267216 -114.108541 177 13542ft 190kts
18-Jan-21 19:07 47.223152 -114.105466 177 13542ft 190kts
18-Jan-21 19:09 47.160523 -114.101108 177 13542ft 190kts
18-Jan-21 19:10 47.097976 -114.096762 177 13543ft 190kts
18-Jan-21 19:11 47.044378 -114.093046 177 13551ft 190kts
18-Jan-21 19:11 47.000285 -114.089996 177 13551ft 190kts
18-Jan-21 19:12 46.947179 -114.086328 177 13551ft 191kts
18-Jan-21 19:13 46.895213 -114.083746 179 13551ft 191kts
18-Jan-21 19:14 46.841856 -114.083641 180 13551ft 191kts
18-Jan-21 19:15 46.788979 -114.083660 180 13551ft 190kts
18-Jan-21 19:16 46.735927 -114.083676 180 13551ft 190kts
18-Jan-21 19:17 46.682287 -114.083687 180 13552ft 195kts
18-Jan-21 19:18 46.627846 -114.083713 180 13551ft 197kts
18-Jan-21 19:19 46.572942 -114.083733 180 13551ft 197kts
18-Jan-21 19:20 46.518022 -114.083741 180 13551ft 197kts
18-Jan-21 19:21 46.463223 -114.083749 180 13551ft 197kts
18-Jan-21 19:22 46.408322 -114.083764 180 13551ft 197kts
18-Jan-21 19:23 46.353522 -114.083778 180 13551ft 197kts
18-Jan-21 19:24 46.298714 -114.083802 180 13551ft 197kts
18-Jan-21 19:25 46.243500 -114.083832 180 13551ft 197kts
18-Jan-21 19:26 46.187647 -114.083859 180 13551ft 197kts
18-Jan-21 19:27 46.131176 -114.083888 180 13551ft 196kts
18-Jan-21 19:28 46.076962 -114.083915 180 13551ft 189kts
18-Jan-21 19:29 46.022977 -114.083934 180 13551ft 188kts
18-Jan-21 19:30 45.968841 -114.083962 180 13551ft 187kts
18-Jan-21 19:31 45.913458 -114.083988 180 13551ft 187kts
18-Jan-21 19:32 45.860812 -114.084006 180 13551ft 187kts
18-Jan-21 19:33 45.808782 -114.084020 180 13551ft 187kts
18-Jan-21 19:34 45.756672 -114.084034 180 13551ft 187kts
18-Jan-21 19:35 45.701411 -114.084048 180 13551ft 187kts
18-Jan-21 19:36 45.649395 -114.084062 180 13551ft 187kts
18-Jan-21 19:37 45.597199 -114.084076 180 13551ft 187kts
18-Jan-21 19:38 45.545232 -114.084089 180 13551ft 187kts
18-Jan-21 19:39 45.493067 -114.084104 180 13551ft 187kts
18-Jan-21 19:40 45.440957 -114.084117 180 13551ft 187kts
18-Jan-21 19:41 45.385226 -114.084134 180 13551ft 187kts
18-Jan-21 19:42 45.323531 -114.084138 179 13551ft 187kts
18-Jan-21 19:43 45.271522 -114.084135 179 13551ft 187kts
18-Jan-21 19:44 45.219260 -114.084154 179 13551ft 188kts
18-Jan-21 19:45 45.166977 -114.084165 179 13551ft 187kts
18-Jan-21 19:46 45.114572 -114.084181 179 13551ft 187kts
18-Jan-21 19:47 45.062563 -114.084197 179 13562ft 187kts
18-Jan-21 19:48 45.009417 -114.086494 186 13551ft 188kts
18-Jan-21 19:49 44.956029 -114.095043 186 13551ft 188kts
18-Jan-21 19:50 44.903135 -114.103581 186 13551ft 187kts
18-Jan-21 19:51 44.852483 -114.111747 186 13551ft 187kts
18-Jan-21 19:52 44.800682 -114.120082 186 13551ft 187kts
18-Jan-21 19:53 44.748876 -114.128406 186 13551ft 187kts
18-Jan-21 19:54 44.697086 -114.136713 186 13551ft 187kts
18-Jan-21 19:55 44.645255 -114.145012 186 13551ft 187kts
18-Jan-21 19:56 44.593416 -114.153297 186 13551ft 187kts
18-Jan-21 19:57 44.541595 -114.161563 186 13551ft 187kts
18-Jan-21 19:58 44.489787 -114.169813 186 13551ft 188kts
18-Jan-21 19:59 44.439504 -114.177777 186 14084ft 163kts
18-Jan-21 20:00 44.394216 -114.184934 186 14554ft 174kts
18-Jan-21 20:01 44.343783 -114.192950 186 14552ft 187kts
18-Jan-21 20:02 44.291787 -114.201202 186 14551ft 189kts
18-Jan-21 20:03 44.238408 -114.209629 186 14552ft 197kts
18-Jan-21 20:04 44.183644 -114.218271 186 14551ft 199kts
18-Jan-21 20:05 44.128523 -114.226944 186 14551ft 199kts
18-Jan-21 20:06 44.073440 -114.235593 186 14551ft 199kts
18-Jan-21 20:07 44.018254 -114.244241 186 14551ft 199kts
18-Jan-21 20:08 43.960993 -114.253196 186 14551ft 199kts
18-Jan-21 20:09 43.905835 -114.261803 186 14666ft 195kts
18-Jan-21 20:10 43.852490 -114.270101 186 14993ft 191kts
18-Jan-21 20:11 43.798702 -114.278480 186 15052ft 198kts
18-Jan-21 20:12 43.743644 -114.287028 186 15155ft 196kts
18-Jan-21 20:13 43.688949 -114.295510 186 15170ft 200kts
18-Jan-21 20:14 43.633451 -114.304099 186 15089ft 204kts
18-Jan-21 20:15 43.575982 -114.312988 186 14736ft 208kts
18-Jan-21 20:16 43.518645 -114.321823 186 14460ft 207kts
18-Jan-21 20:17 43.461490 -114.330613 186 14197ft 206kts
18-Jan-21 20:18 43.404647 -114.339343 186 13946ft 205kts
18-Jan-21 20:19 43.346331 -114.348278 186 13704ft 205kts
18-Jan-21 20:20 43.287436 -114.357292 186 13423ft 207kts
18-Jan-21 20:21 43.223095 -114.367159 186 12245ft 220kts
18-Jan-21 20:22 43.156925 -114.377259 186 10718ft 217kts
18-Jan-21 20:23 43.090266 -114.387360 187 9616ft 199kts
18-Jan-21 20:24 43.040080 -114.425237 212 9536ft 175kts
18-Jan-21 20:25 42.995431 -114.464470 213 9534ft 172kts
18-Jan-21 20:26 42.949819 -114.504696 213 9533ft 172kts
18-Jan-21 20:27 42.905896 -114.543387 213 9533ft 171kts
18-Jan-21 20:28 42.862367 -114.581638 213 9537ft 179kts
18-Jan-21 20:29 42.815263 -114.623031 213 9546ft 189kts
18-Jan-21 20:30 42.767604 -114.664794 212 9546ft 190kts
18-Jan-21 20:31 42.719298 -114.707045 212 9547ft 190kts
18-Jan-21 20:32 42.671269 -114.748974 212 9547ft 190kts
18-Jan-21 20:33 42.613153 -114.763448 181 8902ft 207kts
18-Jan-21 20:34 42.549162 -114.765107 180 7745ft 212kts
18-Jan-21 20:35 42.491857 -114.749812 121 6894ft 177kts
18-Jan-21 20:37 42.484130 -114.689803 90 6552ft 152kts
18-Jan-21 20:38 42.483440 -114.642083 90 6105ft 106kts
18-Jan-21 20:39 42.482837 -114.602054 90 5583ft 107kts
18-Jan-21 20:40 42.482162 -114.559409 90 4979ft 107kts
18-Jan-21 20:41 42.481479 -114.517158 90 4374ft 99kts
18-Jan-21 20:42 42.480979 -114.486919 94 4134ft 34kts
18-Jan-21 20:43 42.482747 -114.484443 53 4129ft 0kts
18-Jan-21 20:44 42.482747 -114.484443 53 4129ft 0kts
18-Jan-21 20:45 42.482747 -114.484443 53 4129ft 0kts
18-Jan-21 20:46 42.482747 -114.484443 53 4129ft 0kts
18-Jan-21 20:47 42.482747 -114.484443 53 4129ft 0kts
18-Jan-21 20:48 42.482747 -114.484443 53 4129ft 0kts
18-Jan-21 20:49 42.482747 -114.484443 53 4129ft 0kts
18-Jan-21 20:50 42.482747 -114.484443 53 4129ft 0kts
18-Jan-21 20:51 42.482747 -114.484443 53 4129ft 0kts
18-Jan-21 20:52 42.482747 -114.484443 53 4129ft 0kts
18-Jan-21 20:52 42.482747 -114.484443 53 4129ft 0kts
18-Jan-21 20:54 42.482747 -114.484443 53 4129ft 0kts
18-Jan-21 20:55 42.482747 -114.484443 53 4129ft 0kts
18-Jan-21 20:56 42.482747 -114.484443 53 4129ft 0kts

Navigation Log

Ident Type
Flight plan parsing failed, navigation log unavailable